createdAt,value
2016-03-02T00:00:27.198Z,0
2016-03-02T00:01:27.184Z,0
2016-03-02T00:02:27.203Z,0
2016-03-02T00:03:27.221Z,0
2016-03-02T00:04:27.208Z,0
2016-03-02T00:05:27.195Z,0
2016-03-02T00:06:27.167Z,0
2016-03-02T00:07:27.201Z,0
2016-03-02T00:08:27.172Z,0
2016-03-02T00:09:27.206Z,0
2016-03-02T00:10:27.177Z,0
2016-03-02T00:11:27.227Z,0
2016-03-02T00:12:27.182Z,0
2016-03-02T00:13:27.217Z,0
2016-03-02T00:14:27.172Z,0
2016-03-02T00:15:27.206Z,0
2016-03-02T00:16:27.178Z,0
2016-03-02T00:17:27.196Z,0
2016-03-02T00:18:27.183Z,0
2016-03-02T00:19:27.186Z,0
2016-03-02T00:20:27.189Z,0
2016-03-02T00:21:27.175Z,0
2016-03-02T00:22:27.193Z,0
2016-03-02T00:23:27.181Z,0
2016-03-02T00:24:27.199Z,0
2016-03-02T00:25:27.030Z,0
2016-03-02T00:26:27.205Z,0
2016-03-02T00:27:27.191Z,0
2016-03-02T00:28:27.194Z,0
2016-03-02T00:29:33.446Z,0
2016-03-02T00:30:27.169Z,0
2016-03-02T00:31:27.202Z,0
2016-03-02T00:32:27.159Z,0
2016-03-02T00:33:27.176Z,0
2016-03-02T00:34:27.210Z,0
2016-03-02T00:35:27.182Z,0
2016-03-02T00:36:27.170Z,0
2016-03-02T00:37:27.173Z,0
2016-03-02T00:38:27.175Z,0
2016-03-02T00:39:27.177Z,0
2016-03-02T00:40:27.181Z,0
2016-03-02T00:41:27.183Z,0
2016-03-02T00:42:27.186Z,0
2016-03-02T00:43:27.031Z,0
2016-03-02T00:44:27.206Z,0
2016-03-02T00:45:27.177Z,0
2016-03-02T00:46:27.164Z,0
2016-03-02T00:47:27.167Z,0
2016-03-02T00:48:27.170Z,0
2016-03-02T00:49:27.172Z,0
2016-03-02T00:50:27.191Z,0
2016-03-02T00:51:27.163Z,0
2016-03-02T00:52:27.165Z,0
2016-03-02T00:53:27.168Z,0
2016-03-02T00:54:27.170Z,0
2016-03-02T00:55:27.174Z,0
2016-03-02T00:56:27.176Z,0
2016-03-02T00:57:27.163Z,0
2016-03-02T00:58:27.197Z,0
2016-03-02T00:59:27.168Z,0
2016-03-02T01:00:27.187Z,0
2016-03-02T01:01:27.158Z,0
2016-03-02T01:02:27.177Z,0
2016-03-02T01:03:27.163Z,0
2016-03-02T01:04:27.181Z,0
2016-03-02T01:05:27.185Z,0
2016-03-02T01:06:27.171Z,0
2016-03-02T01:07:27.174Z,0
2016-03-02T01:08:27.176Z,0
2016-03-02T01:09:27.179Z,0
2016-03-02T01:10:27.182Z,0
2016-03-02T01:11:27.184Z,0
2016-03-02T01:12:27.188Z,0
2016-03-02T01:13:27.159Z,0
2016-03-02T01:14:27.177Z,0
2016-03-02T01:15:27.180Z,0
2016-03-02T01:16:27.167Z,0
2016-03-02T01:17:27.170Z,0
2016-03-02T01:18:27.189Z,0
2016-03-02T01:19:27.175Z,0
2016-03-02T01:20:27.163Z,0
2016-03-02T01:21:27.165Z,0
2016-03-02T01:22:27.168Z,0
2016-03-02T01:23:27.171Z,0
2016-03-02T01:24:27.173Z,0
2016-03-02T01:25:27.176Z,0
2016-03-02T01:26:27.179Z,0
2016-03-02T01:27:27.165Z,0
2016-03-02T01:28:27.184Z,0
2016-03-02T01:29:27.171Z,0
2016-03-02T01:30:27.174Z,0
2016-03-02T01:31:27.160Z,0
2016-03-02T01:32:27.163Z,0
2016-03-02T01:33:27.182Z,0
2016-03-02T01:34:27.168Z,0
2016-03-02T01:35:27.156Z,0
2016-03-02T01:36:27.174Z,0
2016-03-02T01:37:27.162Z,0
2016-03-02T01:38:27.195Z,0
2016-03-02T01:39:27.167Z,0
2016-03-02T01:40:27.185Z,0
2016-03-02T01:41:27.172Z,0
2016-03-02T01:42:27.190Z,0
2016-03-02T01:43:27.162Z,0
2016-03-02T01:44:27.164Z,0
2016-03-02T01:45:27.167Z,0
2016-03-02T01:46:27.153Z,0
2016-03-02T01:47:27.173Z,0
2016-03-02T01:48:27.159Z,0
2016-03-02T01:49:27.178Z,0
2016-03-02T01:50:27.165Z,0
2016-03-02T01:51:27.167Z,0
2016-03-02T01:52:27.169Z,0
2016-03-02T01:53:27.158Z,0
2016-03-02T01:54:27.175Z,0
2016-03-02T01:55:27.163Z,0
2016-03-02T01:56:27.180Z,0
2016-03-02T01:57:27.168Z,0
2016-03-02T01:58:27.171Z,0
2016-03-02T01:59:27.173Z,0
2016-03-02T02:00:27.177Z,0
2016-03-02T02:01:27.194Z,0
2016-03-02T02:02:27.150Z,0
2016-03-02T02:03:27.168Z,0
2016-03-02T02:04:27.156Z,0
2016-03-02T02:05:27.143Z,0
2016-03-02T02:06:27.186Z,0
2016-03-02T02:07:27.142Z,0
2016-03-02T02:08:27.161Z,0
2016-03-02T02:09:27.147Z,0
2016-03-02T02:10:27.166Z,0
2016-03-02T02:11:27.153Z,0
2016-03-02T02:12:27.030Z,0
2016-03-02T02:13:27.002Z,0
2016-03-02T02:14:27.161Z,0
2016-03-02T02:15:27.164Z,0
2016-03-02T02:16:27.010Z,0
2016-03-02T02:17:27.169Z,0
2016-03-02T02:18:27.156Z,0
2016-03-02T02:19:27.018Z,0
2016-03-02T02:20:27.161Z,0
2016-03-02T02:21:27.180Z,0
2016-03-02T02:22:27.152Z,0
2016-03-02T02:23:27.185Z,0
2016-03-02T02:24:27.157Z,0
2016-03-02T02:25:27.207Z,0
2016-03-02T02:26:27.162Z,0
2016-03-02T02:27:27.180Z,0
2016-03-02T02:28:27.152Z,0
2016-03-02T02:29:27.154Z,0
2016-03-02T02:30:27.157Z,0
2016-03-02T02:31:27.159Z,0
2016-03-02T02:32:27.007Z,0
2016-03-02T02:33:27.165Z,0
2016-03-02T02:34:27.168Z,0
2016-03-02T02:35:27.187Z,0
2016-03-02T02:36:27.158Z,0
2016-03-02T02:37:27.144Z,0
2016-03-02T02:38:27.164Z,0
2016-03-02T02:39:27.150Z,0
2016-03-02T02:40:27.184Z,0
2016-03-02T02:41:27.155Z,0
2016-03-02T02:42:27.174Z,0
2016-03-02T02:43:27.161Z,0
2016-03-02T02:44:27.194Z,0
2016-03-02T02:45:27.167Z,0
2016-03-02T02:46:27.185Z,0
2016-03-02T02:47:27.155Z,0
2016-03-02T02:48:27.174Z,0
2016-03-02T02:49:27.161Z,0
2016-03-02T02:50:27.180Z,0
2016-03-02T02:51:27.166Z,0
2016-03-02T02:52:27.138Z,0
2016-03-02T02:53:27.157Z,0
2016-03-02T02:54:27.143Z,0
2016-03-02T02:55:27.163Z,0
2016-03-02T02:56:27.149Z,0
2016-03-02T02:57:27.183Z,0
2016-03-02T02:58:27.154Z,0
2016-03-02T02:59:27.173Z,0
2016-03-02T03:00:27.160Z,0
2016-03-02T03:01:27.162Z,0
2016-03-02T03:02:27.134Z,0
2016-03-02T03:03:27.152Z,0
2016-03-02T03:04:27.154Z,0
2016-03-02T03:05:26.892Z,0
2016-03-02T03:06:27.145Z,0
2016-03-02T03:07:27.148Z,0
2016-03-02T03:08:27.181Z,0
2016-03-02T03:09:27.153Z,0
2016-03-02T03:10:27.171Z,0
2016-03-02T03:11:27.142Z,0
2016-03-02T03:12:27.175Z,0
2016-03-02T03:13:27.133Z,0
2016-03-02T03:14:27.181Z,0
2016-03-02T03:15:27.138Z,0
2016-03-02T03:16:27.187Z,0
2016-03-02T03:17:27.143Z,0
2016-03-02T03:18:27.177Z,0
2016-03-02T03:19:27.163Z,0
2016-03-02T03:20:27.183Z,0
2016-03-02T03:21:27.154Z,0
2016-03-02T03:22:27.140Z,0
2016-03-02T03:23:27.143Z,0
2016-03-02T03:24:27.146Z,0
2016-03-02T03:25:27.180Z,0
2016-03-02T03:26:27.152Z,0
2016-03-02T03:27:27.186Z,0
2016-03-02T03:28:27.126Z,0
2016-03-02T03:29:27.159Z,0
2016-03-02T03:30:27.147Z,0
2016-03-02T03:31:27.165Z,0
2016-03-02T03:32:27.137Z,0
2016-03-02T03:33:27.154Z,0
2016-03-02T03:34:27.142Z,0
2016-03-02T03:35:27.207Z,0
2016-03-02T03:36:27.131Z,0
2016-03-02T03:37:27.166Z,0
2016-03-02T03:38:27.153Z,0
2016-03-02T03:39:27.170Z,0
2016-03-02T03:40:27.142Z,0
2016-03-02T03:41:27.161Z,0
2016-03-02T03:42:27.131Z,0
2016-03-02T03:43:27.166Z,0
2016-03-02T03:44:27.137Z,0
2016-03-02T03:45:27.156Z,0
2016-03-02T03:46:27.142Z,0
2016-03-02T03:47:27.145Z,0
2016-03-02T03:48:27.133Z,0
2016-03-02T03:49:27.166Z,0
2016-03-02T03:50:27.138Z,0
2016-03-02T03:51:27.140Z,0
2016-03-02T03:52:27.143Z,0
2016-03-02T03:53:27.224Z,0
2016-03-02T03:54:27.148Z,0
2016-03-02T03:55:27.136Z,0
2016-03-02T03:56:27.138Z,0
2016-03-02T03:57:27.141Z,0
2016-03-02T03:58:27.144Z,0
2016-03-02T03:59:27.146Z,0
2016-03-02T04:00:27.149Z,0
2016-03-02T04:01:27.152Z,0
2016-03-02T04:02:27.155Z,0
2016-03-02T04:03:27.157Z,0
2016-03-02T04:04:27.144Z,0
2016-03-02T04:05:27.148Z,0
2016-03-02T04:06:27.134Z,0
2016-03-02T04:07:27.137Z,0
2016-03-02T04:08:26.998Z,0
2016-03-02T04:09:27.142Z,0
2016-03-02T04:10:27.161Z,0
2016-03-02T04:11:27.148Z,0
2016-03-02T04:12:27.167Z,0
2016-03-02T04:13:27.137Z,0
2016-03-02T04:14:27.139Z,0
2016-03-02T04:15:27.142Z,0
2016-03-02T04:16:27.145Z,0
2016-03-02T04:17:27.132Z,0
2016-03-02T04:18:27.167Z,0
2016-03-02T04:19:27.138Z,0
2016-03-02T04:20:27.155Z,0
2016-03-02T04:21:27.143Z,0
2016-03-02T04:22:27.130Z,0
2016-03-02T04:23:27.149Z,0
2016-03-02T04:24:27.135Z,0
2016-03-02T04:25:27.154Z,0
2016-03-02T04:26:27.141Z,0
2016-03-02T04:27:27.143Z,0
2016-03-02T04:28:27.131Z,0
2016-03-02T04:29:27.133Z,0
2016-03-02T04:30:27.136Z,0
2016-03-02T04:31:27.138Z,0
2016-03-02T04:32:27.141Z,0
2016-03-02T04:33:27.144Z,0
2016-03-02T04:34:27.131Z,0
2016-03-02T04:35:27.149Z,0
2016-03-02T04:36:27.137Z,0
2016-03-02T04:37:27.139Z,0
2016-03-02T04:38:27.126Z,0
2016-03-02T04:39:27.145Z,0
2016-03-02T04:40:27.148Z,0
2016-03-02T04:41:27.150Z,0
2016-03-02T04:42:27.153Z,0
2016-03-02T04:43:27.140Z,0
2016-03-02T04:44:27.128Z,0
2016-03-02T04:45:27.130Z,0
2016-03-02T04:46:27.133Z,0
2016-03-02T04:47:27.119Z,0
2016-03-02T04:48:27.138Z,0
2016-03-02T04:49:27.125Z,0
2016-03-02T04:50:27.143Z,0
2016-03-02T04:51:27.161Z,0
2016-03-02T04:52:27.132Z,0
2016-03-02T04:53:27.152Z,0
2016-03-02T04:54:27.138Z,0
2016-03-02T04:55:27.140Z,0
2016-03-02T04:56:27.128Z,0
2016-03-02T04:57:27.130Z,0
2016-03-02T04:58:27.133Z,0
2016-03-02T04:59:27.136Z,0
2016-03-02T05:00:27.123Z,0
2016-03-02T05:01:27.126Z,0
2016-03-02T05:02:27.128Z,0
2016-03-02T05:03:27.132Z,0
2016-03-02T05:04:27.134Z,0
2016-03-02T05:05:27.137Z,0
2016-03-02T05:06:27.123Z,0
2016-03-02T05:07:27.142Z,0
2016-03-02T05:08:26.973Z,0
2016-03-02T05:09:27.147Z,0
2016-03-02T05:10:27.135Z,0
2016-03-02T05:11:27.168Z,0
2016-03-02T05:12:26.968Z,0
2016-03-02T05:13:27.159Z,0
2016-03-02T05:14:27.129Z,0
2016-03-02T05:15:27.164Z,0
2016-03-02T05:16:27.134Z,0
2016-03-02T05:17:27.137Z,0
2016-03-02T05:18:27.124Z,0
2016-03-02T05:19:27.127Z,0
2016-03-02T05:20:27.114Z,0
2016-03-02T05:21:27.117Z,0
2016-03-02T05:22:27.135Z,0
2016-03-02T05:23:27.138Z,0
2016-03-02T05:24:27.125Z,0
2016-03-02T05:25:27.128Z,0
2016-03-02T05:26:26.974Z,0
2016-03-02T05:27:27.118Z,0
2016-03-02T05:28:27.121Z,0
2016-03-02T05:29:27.123Z,0
2016-03-02T05:30:27.141Z,0
2016-03-02T05:31:27.144Z,0
2016-03-02T05:32:27.146Z,0
2016-03-02T05:33:27.134Z,0
2016-03-02T05:34:27.137Z,0
2016-03-02T05:35:26.968Z,0
2016-03-02T05:36:27.110Z,0
2016-03-02T05:37:27.112Z,0
2016-03-02T05:38:27.132Z,0
2016-03-02T05:39:27.118Z,0
2016-03-02T05:40:27.137Z,0
2016-03-02T05:41:27.140Z,0
2016-03-02T05:42:27.126Z,0
2016-03-02T05:43:27.129Z,0
2016-03-02T05:44:27.117Z,0
2016-03-02T05:45:27.119Z,0
2016-03-02T05:46:27.122Z,0
2016-03-02T05:47:27.108Z,0
2016-03-02T05:48:27.127Z,0
2016-03-02T05:49:27.114Z,0
2016-03-02T05:50:27.100Z,0
2016-03-02T05:51:27.120Z,0
2016-03-02T05:52:27.138Z,0
2016-03-02T05:53:27.094Z,0
2016-03-02T05:54:27.144Z,0
2016-03-02T05:55:27.130Z,0
2016-03-02T05:56:27.117Z,0
2016-03-02T05:57:27.135Z,0
2016-03-02T05:58:27.122Z,0
2016-03-02T05:59:27.125Z,0
2016-03-02T06:00:27.112Z,0
2016-03-02T06:01:27.147Z,0
2016-03-02T06:02:27.118Z,0
2016-03-02T06:03:27.135Z,0
2016-03-02T06:04:27.123Z,0
2016-03-02T06:05:26.813Z,0
2016-03-02T06:06:27.113Z,0
2016-03-02T06:07:27.115Z,0
2016-03-02T06:08:27.134Z,0
2016-03-02T06:09:27.121Z,0
2016-03-02T06:10:26.967Z,0
2016-03-02T06:11:27.143Z,0
2016-03-02T06:12:27.129Z,0
2016-03-02T06:13:27.117Z,0
2016-03-02T06:14:27.119Z,0
2016-03-02T06:15:27.106Z,0
2016-03-02T06:16:27.125Z,0
2016-03-02T06:17:27.127Z,0
2016-03-02T06:18:27.130Z,5
2016-03-02T06:19:27.133Z,5
2016-03-02T06:20:26.963Z,5
2016-03-02T06:21:27.153Z,5
2016-03-02T06:22:27.109Z,5
2016-03-02T06:23:27.127Z,5
2016-03-02T06:24:27.130Z,5
2016-03-02T06:25:27.133Z,5
2016-03-02T06:26:27.119Z,5
2016-03-02T06:27:27.107Z,5
2016-03-02T06:28:27.109Z,5
2016-03-02T06:29:27.128Z,5
2016-03-02T06:30:27.115Z,5
2016-03-02T06:31:27.118Z,5
2016-03-02T06:32:27.136Z,5
2016-03-02T06:33:27.123Z,5
2016-03-02T06:34:27.110Z,10
2016-03-02T06:35:27.113Z,10
2016-03-02T06:36:27.115Z,10
2016-03-02T06:37:27.118Z,10
2016-03-02T06:38:26.965Z,15
2016-03-02T06:39:27.108Z,15
2016-03-02T06:40:27.110Z,15
2016-03-02T06:41:27.113Z,15
2016-03-02T06:42:27.115Z,15
2016-03-02T06:43:26.963Z,15
2016-03-02T06:44:27.137Z,20
2016-03-02T06:45:27.139Z,20
2016-03-02T06:46:27.126Z,20
2016-03-02T06:47:27.114Z,20
2016-03-02T06:48:27.117Z,20
2016-03-02T06:49:27.120Z,20
2016-03-02T06:50:27.122Z,20
2016-03-02T06:51:26.968Z,20
2016-03-02T06:52:27.142Z,25
2016-03-02T06:53:27.114Z,25
2016-03-02T06:54:27.102Z,25
2016-03-02T06:55:27.120Z,25
2016-03-02T06:56:27.122Z,25
2016-03-02T06:57:27.125Z,30
2016-03-02T06:58:27.127Z,30
2016-03-02T06:59:27.131Z,30
2016-03-02T07:00:27.118Z,30
2016-03-02T07:01:27.121Z,30
2016-03-02T07:02:27.107Z,25
2016-03-02T07:03:27.111Z,25
2016-03-02T07:04:27.129Z,25
2016-03-02T07:05:27.146Z,25
2016-03-02T07:06:27.118Z,25
2016-03-02T07:07:27.121Z,25
2016-03-02T07:08:27.124Z,25
2016-03-02T07:09:27.111Z,20
2016-03-02T07:10:27.129Z,25
2016-03-02T07:11:26.960Z,25
2016-03-02T07:12:27.118Z,25
2016-03-02T07:13:27.122Z,25
2016-03-02T07:14:27.124Z,25
2016-03-02T07:15:27.111Z,25
2016-03-02T07:16:27.115Z,25
2016-03-02T07:17:27.117Z,30
2016-03-02T07:18:27.120Z,30
2016-03-02T07:19:27.122Z,30
2016-03-02T07:20:27.125Z,30
2016-03-02T07:21:27.128Z,30
2016-03-02T07:22:27.114Z,30
2016-03-02T07:23:27.117Z,30
2016-03-02T07:24:27.104Z,30
2016-03-02T07:25:27.107Z,30
2016-03-02T07:26:26.953Z,35
2016-03-02T07:27:27.129Z,35
2016-03-02T07:28:27.115Z,35
2016-03-02T07:29:27.118Z,35
2016-03-02T07:30:27.137Z,35
2016-03-02T07:31:27.108Z,35
2016-03-02T07:32:27.111Z,35
2016-03-02T07:33:27.113Z,35
2016-03-02T07:34:27.117Z,35
2016-03-02T07:35:27.135Z,35
2016-03-02T07:36:27.122Z,35
2016-03-02T07:37:27.125Z,35
2016-03-02T07:38:27.111Z,35
2016-03-02T07:39:26.974Z,35
2016-03-02T07:40:27.132Z,40
2016-03-02T07:41:27.150Z,40
2016-03-02T07:42:27.122Z,40
2016-03-02T07:43:27.155Z,40
2016-03-02T07:44:27.113Z,40
2016-03-02T07:45:27.130Z,40
2016-03-02T07:46:27.133Z,40
2016-03-02T07:47:27.120Z,40
2016-03-02T07:48:27.107Z,40
2016-03-02T07:49:27.141Z,45
2016-03-02T07:50:26.972Z,45
2016-03-02T07:51:27.224Z,45
2016-03-02T07:52:27.148Z,45
2016-03-02T07:53:27.120Z,45
2016-03-02T07:54:27.123Z,45
2016-03-02T07:55:27.125Z,45
2016-03-02T07:56:27.128Z,45
2016-03-02T07:57:27.115Z,45
2016-03-02T07:58:27.134Z,45
2016-03-02T07:59:27.136Z,45
2016-03-02T08:00:27.139Z,45
2016-03-02T08:01:27.126Z,45
2016-03-02T08:02:27.128Z,45
2016-03-02T08:03:27.131Z,50
2016-03-02T08:04:26.712Z,45
2016-03-02T08:05:27.137Z,40
2016-03-02T08:06:27.000Z,40
2016-03-02T08:07:27.127Z,40
2016-03-02T08:08:27.130Z,40
2016-03-02T08:09:27.133Z,45
2016-03-02T08:10:27.135Z,50
2016-03-02T08:11:27.122Z,55
2016-03-02T08:12:27.141Z,60
2016-03-02T08:13:27.128Z,65
2016-03-02T08:14:27.130Z,65
2016-03-02T08:15:27.116Z,60
2016-03-02T08:16:27.119Z,60
2016-03-02T08:17:27.138Z,60
2016-03-02T08:18:27.141Z,60
2016-03-02T08:19:27.128Z,60
2016-03-02T08:20:27.131Z,60
2016-03-02T08:21:27.212Z,60
2016-03-02T08:22:27.152Z,60
2016-03-02T08:23:27.123Z,60
2016-03-02T08:24:27.126Z,60
2016-03-02T08:25:27.128Z,50
2016-03-02T08:26:27.131Z,50
2016-03-02T08:27:27.149Z,55
2016-03-02T08:28:27.152Z,60
2016-03-02T08:29:27.171Z,65
2016-03-02T08:30:27.142Z,60
2016-03-02T08:31:27.129Z,45
2016-03-02T08:32:27.132Z,40
2016-03-02T08:33:27.134Z,45
2016-03-02T08:34:27.137Z,45
2016-03-02T08:35:27.139Z,50
2016-03-02T08:36:27.220Z,55
2016-03-02T08:37:27.120Z,60
2016-03-02T08:38:27.109Z,60
2016-03-02T08:39:27.096Z,65
2016-03-02T08:40:27.083Z,60
2016-03-02T08:41:27.086Z,60
2016-03-02T08:42:27.047Z,70
2016-03-02T08:43:27.059Z,75
2016-03-02T08:44:27.057Z,80
2016-03-02T08:45:27.038Z,70
2016-03-02T08:46:27.051Z,80
2016-03-02T08:47:27.066Z,80
2016-03-02T08:48:27.036Z,70
2016-03-02T08:49:27.427Z,75
2016-03-02T08:50:27.069Z,75
2016-03-02T08:51:27.101Z,75
2016-03-02T08:52:27.039Z,75
2016-03-02T08:53:27.041Z,70
2016-03-02T08:54:27.043Z,75
2016-03-02T08:55:27.029Z,75
2016-03-02T08:56:27.031Z,75
2016-03-02T08:57:27.033Z,75
2016-03-02T08:58:27.037Z,75
2016-03-02T08:59:27.055Z,75
2016-03-02T09:00:27.041Z,70
2016-03-02T09:01:27.044Z,80
2016-03-02T09:02:27.032Z,75
2016-03-02T09:03:27.049Z,85
2016-03-02T09:04:27.037Z,110
2016-03-02T09:05:27.055Z,120
2016-03-02T09:06:27.058Z,135
2016-03-02T09:07:27.030Z,135
2016-03-02T09:08:27.048Z,120
2016-03-02T09:09:27.066Z,110
2016-03-02T09:10:27.053Z,105
2016-03-02T09:11:27.056Z,125
2016-03-02T09:12:27.043Z,135
2016-03-02T09:13:27.045Z,125
2016-03-02T09:14:27.048Z,120
2016-03-02T09:15:27.051Z,115
2016-03-02T09:16:27.053Z,100
2016-03-02T09:17:27.042Z,110
2016-03-02T09:18:27.059Z,125
2016-03-02T09:19:27.078Z,125
2016-03-02T09:20:26.909Z,125
2016-03-02T09:21:26.911Z,135
2016-03-02T09:22:27.055Z,135
2016-03-02T09:23:27.072Z,130
2016-03-02T09:24:27.075Z,145
2016-03-02T09:25:27.063Z,155
2016-03-02T09:26:27.066Z,155
2016-03-02T09:27:27.083Z,140
2016-03-02T09:28:27.071Z,120
2016-03-02T09:29:27.058Z,110
2016-03-02T09:30:27.077Z,110
2016-03-02T09:31:27.094Z,110
2016-03-02T09:32:27.082Z,100
2016-03-02T09:33:27.084Z,85
2016-03-02T09:34:27.055Z,85
2016-03-02T09:35:27.074Z,95
2016-03-02T09:36:27.076Z,95
2016-03-02T09:37:27.096Z,95
2016-03-02T09:38:27.082Z,95
2016-03-02T09:39:27.101Z,95
2016-03-02T09:40:27.104Z,90
2016-03-02T09:41:27.074Z,90
2016-03-02T09:42:27.093Z,85
2016-03-02T09:43:27.095Z,80
2016-03-02T09:44:27.082Z,80
2016-03-02T09:45:27.100Z,75
2016-03-02T09:46:27.087Z,75
2016-03-02T09:47:27.106Z,75
2016-03-02T09:48:27.092Z,75
2016-03-02T09:49:27.095Z,75
2016-03-02T09:50:26.942Z,80
2016-03-02T09:51:27.101Z,80
2016-03-02T09:52:27.120Z,80
2016-03-02T09:53:27.122Z,85
2016-03-02T09:54:27.094Z,90
2016-03-02T09:55:27.127Z,85
2016-03-02T09:56:27.099Z,90
2016-03-02T09:57:27.132Z,90
2016-03-02T09:58:27.104Z,90
2016-03-02T09:59:27.154Z,95
2016-03-02T10:00:27.110Z,100
2016-03-02T10:01:27.112Z,100
2016-03-02T10:02:27.116Z,110
2016-03-02T10:03:27.118Z,120
2016-03-02T10:04:27.152Z,120
2016-03-02T10:05:26.810Z,130
2016-03-02T10:06:27.141Z,140
2016-03-02T10:07:27.129Z,130
2016-03-02T10:08:27.115Z,130
2016-03-02T10:09:27.150Z,140
2016-03-02T10:10:27.121Z,150
2016-03-02T10:11:27.140Z,150
2016-03-02T10:12:27.126Z,145
2016-03-02T10:13:27.160Z,135
2016-03-02T10:14:27.147Z,130
2016-03-02T10:15:27.165Z,135
2016-03-02T10:16:27.137Z,135
2016-03-02T10:17:27.170Z,125
2016-03-02T10:18:27.142Z,130
2016-03-02T10:19:27.176Z,135
2016-03-02T10:20:27.148Z,135
2016-03-02T10:21:27.182Z,135
2016-03-02T10:22:27.153Z,130
2016-03-02T10:23:27.156Z,120
2016-03-02T10:24:27.143Z,125
2016-03-02T10:25:27.161Z,130
2016-03-02T10:26:27.148Z,135
2016-03-02T10:27:27.166Z,135
2016-03-02T10:28:27.169Z,135
2016-03-02T10:29:27.203Z,125
2016-03-02T10:30:27.175Z,130
2016-03-02T10:31:27.178Z,120
2016-03-02T10:32:27.180Z,110
2016-03-02T10:33:27.199Z,100
2016-03-02T10:34:27.154Z,95
2016-03-02T10:35:27.172Z,90
2016-03-02T10:36:27.174Z,100
2016-03-02T10:37:27.194Z,110
2016-03-02T10:38:27.180Z,110
2016-03-02T10:39:27.183Z,105
2016-03-02T10:40:27.233Z,110
2016-03-02T10:41:27.033Z,115
2016-03-02T10:42:27.223Z,115
2016-03-02T10:43:27.194Z,120
2016-03-02T10:44:27.228Z,115
2016-03-02T10:45:27.199Z,105
2016-03-02T10:46:27.218Z,100
2016-03-02T10:47:27.204Z,90
2016-03-02T10:48:27.207Z,100
2016-03-02T10:49:27.226Z,110
2016-03-02T10:50:27.259Z,105
2016-03-02T10:51:27.200Z,90
2016-03-02T10:52:27.203Z,85
2016-03-02T10:53:27.267Z,90
2016-03-02T10:54:27.205Z,95
2016-03-02T10:55:27.239Z,85
2016-03-02T10:56:27.195Z,85
2016-03-02T10:57:27.229Z,90
2016-03-02T10:58:27.217Z,90
2016-03-02T10:59:27.250Z,75
2016-03-02T11:00:27.222Z,65
2016-03-02T11:01:27.239Z,70
2016-03-02T11:02:27.227Z,70
2016-03-02T11:03:27.245Z,75
2016-03-02T11:04:27.232Z,60
2016-03-02T11:05:27.111Z,60
2016-03-02T11:06:27.222Z,70
2016-03-02T11:07:27.240Z,75
2016-03-02T11:08:27.244Z,75
2016-03-02T11:09:27.230Z,70
2016-03-02T11:10:27.263Z,80
2016-03-02T11:11:27.251Z,85
2016-03-02T11:12:27.254Z,75
2016-03-02T11:13:27.241Z,70
2016-03-02T11:14:27.274Z,70
2016-03-02T11:15:27.246Z,70
2016-03-02T11:16:27.280Z,75
2016-03-02T11:17:27.251Z,75
2016-03-02T11:18:27.254Z,65
2016-03-02T11:19:27.257Z,65
2016-03-02T11:20:27.276Z,70
2016-03-02T11:21:27.262Z,65
2016-03-02T11:22:27.265Z,65
2016-03-02T11:23:27.283Z,75
2016-03-02T11:24:27.270Z,120
2016-03-02T11:25:27.289Z,120
2016-03-02T11:26:27.276Z,110
2016-03-02T11:27:27.295Z,80
2016-03-02T11:28:27.281Z,85
2016-03-02T11:29:27.284Z,75
2016-03-02T11:30:27.286Z,75
2016-03-02T11:31:27.289Z,70
2016-03-02T11:32:27.308Z,65
2016-03-02T11:33:27.295Z,70
2016-03-02T11:34:27.297Z,80
2016-03-02T11:35:27.347Z,85
2016-03-02T11:36:27.303Z,80
2016-03-02T11:37:27.352Z,75
2016-03-02T11:38:27.308Z,70
2016-03-02T11:39:27.296Z,70
2016-03-02T11:40:27.314Z,70
2016-03-02T11:41:27.301Z,75
2016-03-02T11:42:27.318Z,90
2016-03-02T11:43:27.306Z,90
2016-03-02T11:44:27.340Z,95
2016-03-02T11:45:27.327Z,95
2016-03-02T11:46:27.330Z,95
2016-03-02T11:47:27.317Z,85
2016-03-02T11:48:27.320Z,75
2016-03-02T11:49:27.322Z,75
2016-03-02T11:50:27.325Z,70
2016-03-02T11:51:27.312Z,75
2016-03-02T11:52:27.314Z,75
2016-03-02T11:53:27.349Z,75
2016-03-02T11:54:27.336Z,75
2016-03-02T11:55:27.339Z,70
2016-03-02T11:56:27.325Z,70
2016-03-02T11:57:27.344Z,70
2016-03-02T11:58:27.347Z,70
2016-03-02T11:59:27.333Z,80
2016-03-02T12:00:27.352Z,90
2016-03-02T12:01:27.339Z,90
2016-03-02T12:02:27.388Z,85
2016-03-02T12:03:27.345Z,90
2016-03-02T12:04:27.378Z,95
2016-03-02T12:05:27.361Z,100
2016-03-02T12:06:27.379Z,140
2016-03-02T12:07:27.351Z,150
2016-03-02T12:08:27.354Z,145
2016-03-02T12:09:27.357Z,160
2016-03-02T12:10:27.359Z,155
2016-03-02T12:11:27.362Z,155
2016-03-02T12:12:27.381Z,155
2016-03-02T12:13:27.398Z,155
2016-03-02T12:14:27.386Z,155
2016-03-02T12:15:27.388Z,155
2016-03-02T12:16:27.392Z,140
2016-03-02T12:17:27.394Z,135
2016-03-02T12:18:27.381Z,110
2016-03-02T12:19:27.383Z,95
2016-03-02T12:20:27.402Z,75
2016-03-02T12:21:27.405Z,75
2016-03-02T12:22:27.470Z,80
2016-03-02T12:23:27.394Z,85
2016-03-02T12:24:27.616Z,95
2016-03-02T12:25:27.416Z,100
2016-03-02T12:26:27.433Z,110
2016-03-02T12:27:27.405Z,110
2016-03-02T12:28:27.438Z,100
2016-03-02T12:29:27.410Z,95
2016-03-02T12:30:27.413Z,95
2016-03-02T12:31:27.415Z,100
2016-03-02T12:32:27.402Z,105
2016-03-02T12:33:27.421Z,110
2016-03-02T12:34:27.424Z,115
2016-03-02T12:35:27.410Z,125
2016-03-02T12:36:27.430Z,130
2016-03-02T12:37:27.447Z,130
2016-03-02T12:38:27.419Z,130
2016-03-02T12:39:27.422Z,130
2016-03-02T12:40:27.424Z,135
2016-03-02T12:41:27.442Z,130
2016-03-02T12:42:27.461Z,115
2016-03-02T12:43:27.432Z,115
2016-03-02T12:44:27.451Z,115
2016-03-02T12:45:27.453Z,110
2016-03-02T12:46:27.456Z,95
2016-03-02T12:47:27.443Z,95
2016-03-02T12:48:27.446Z,85
2016-03-02T12:49:27.448Z,75
2016-03-02T12:50:27.451Z,65
2016-03-02T12:51:27.470Z,65
2016-03-02T12:52:27.395Z,65
2016-03-02T12:53:27.491Z,70
2016-03-02T12:54:27.477Z,65
2016-03-02T12:55:27.480Z,65
2016-03-02T12:56:27.500Z,60
2016-03-02T12:57:27.486Z,60
2016-03-02T12:58:27.473Z,65
2016-03-02T12:59:27.335Z,55
2016-03-02T13:00:27.494Z,50
2016-03-02T13:01:27.481Z,45
2016-03-02T13:02:27.515Z,40
2016-03-02T13:03:27.502Z,35
2016-03-02T13:04:27.521Z,35
2016-03-02T13:05:27.492Z,30
2016-03-02T13:06:27.495Z,30
2016-03-02T13:07:27.497Z,30
2016-03-02T13:08:27.500Z,30
2016-03-02T13:09:27.503Z,35
2016-03-02T13:10:27.505Z,30
2016-03-02T13:11:27.508Z,30
2016-03-02T13:12:27.386Z,30
2016-03-02T13:13:27.513Z,20
2016-03-02T13:14:27.548Z,20
2016-03-02T13:15:27.504Z,20
2016-03-02T13:16:27.521Z,20
2016-03-02T13:17:27.509Z,20
2016-03-02T13:18:27.527Z,15
2016-03-02T13:19:27.373Z,20
2016-03-02T13:20:27.532Z,25
2016-03-02T13:21:27.395Z,25
2016-03-02T13:22:27.617Z,30
2016-03-02T13:23:27.525Z,30
2016-03-02T13:24:27.543Z,30
2016-03-02T13:25:27.531Z,35
2016-03-02T13:26:27.548Z,30
2016-03-02T13:27:27.536Z,40
2016-03-02T13:28:27.554Z,50
2016-03-02T13:29:27.556Z,55
2016-03-02T13:30:27.559Z,45
2016-03-02T13:31:27.547Z,40
2016-03-02T13:32:27.581Z,40
2016-03-02T13:33:27.567Z,35
2016-03-02T13:34:27.555Z,40
2016-03-02T13:35:27.558Z,35
2016-03-02T13:36:27.575Z,35
2016-03-02T13:37:27.563Z,30
2016-03-02T13:38:27.565Z,25
2016-03-02T13:39:27.584Z,35
2016-03-02T13:40:27.571Z,35
2016-03-02T13:41:27.573Z,35
2016-03-02T13:42:27.577Z,30
2016-03-02T13:43:27.579Z,30
2016-03-02T13:44:27.597Z,35
2016-03-02T13:45:27.569Z,40
2016-03-02T13:46:27.587Z,50
2016-03-02T13:47:27.574Z,55
2016-03-02T13:48:27.576Z,55
2016-03-02T13:49:27.596Z,50
2016-03-02T13:50:27.582Z,45
2016-03-02T13:51:27.631Z,50
2016-03-02T13:52:27.619Z,40
2016-03-02T13:53:27.606Z,40
2016-03-02T13:54:27.609Z,35
2016-03-02T13:55:27.580Z,40
2016-03-02T13:56:27.629Z,35
2016-03-02T13:57:27.601Z,25
2016-03-02T13:58:27.619Z,25
2016-03-02T13:59:27.606Z,25
2016-03-02T14:00:27.609Z,20
2016-03-02T14:01:27.612Z,25
2016-03-02T14:02:27.630Z,30
2016-03-02T14:03:27.461Z,35
2016-03-02T14:04:27.604Z,40
2016-03-02T14:05:27.466Z,40
2016-03-02T14:06:27.626Z,40
2016-03-02T14:07:27.628Z,45
2016-03-02T14:08:27.631Z,45
2016-03-02T14:09:27.618Z,50
2016-03-02T14:10:27.481Z,50
2016-03-02T14:11:27.640Z,50
2016-03-02T14:12:27.643Z,40
2016-03-02T14:13:27.629Z,45
2016-03-02T14:14:27.647Z,35
2016-03-02T14:15:27.651Z,40
2016-03-02T14:16:27.637Z,45
2016-03-02T14:17:27.656Z,45
2016-03-02T14:18:27.627Z,45
2016-03-02T14:19:27.661Z,45
2016-03-02T14:20:27.508Z,45
2016-03-02T14:21:27.651Z,45
2016-03-02T14:22:27.639Z,40
2016-03-02T14:23:27.688Z,40
2016-03-02T14:24:29.278Z,55
2016-03-02T14:25:36.586Z,55